Time;durP1;ratioP1;P1;durP2;ratioP2;P2;SDS_P1;SDS_P2;PMS_P1;PMS_P2;Temp;Humidity;BMP_temperature;BMP_pressure;BME280_temperature;BME280_humidity;BME280_pressure;Samples;Min_cycle;Max_cycle;Signal;HPM_P1;HPM_P2
2021/12/28 00:00:08;;;;;;;31.73;10.02;;;;;;;7.25;100.00;99459.47;4995862;28;20032;-81
2021/12/28 00:02:33;;;;;;;27.83;10.25;;;;;;;7.24;100.00;99462.91;4996370;28;20058;-81
2021/12/28 00:04:58;;;;;;;37.25;10.60;;;;;;;7.23;100.00;99455.13;4996016;28;20037;-81
2021/12/28 00:07:24;;;;;;;30.13;9.13;;;;;;;7.20;100.00;99452.47;4997041;28;20050;-81
2021/12/28 00:09:49;;;;;;;35.45;9.70;;;;;;;7.17;100.00;99450.72;4992765;28;20101;-81
2021/12/28 00:12:15;;;;;;;39.72;10.18;;;;;;;7.16;100.00;99448.97;4990882;28;20088;-81
2021/12/28 00:14:49;;;;;;;26.05;9.00;;;;;;;7.13;100.00;99448.94;4991844;28;20026;-82
2021/12/28 00:19:58;;;;;;;37.25;9.55;;;;;;;7.10;100.00;99444.56;5001984;28;20311;-80
2021/12/28 00:22:23;;;;;;;42.40;10.15;;;;;;;7.12;100.00;99450.63;4997964;28;20038;-81
2021/12/28 00:24:49;;;;;;;33.40;9.35;;;;;;;7.11;100.00;99451.50;4998528;28;20023;-81
2021/12/28 00:27:14;;;;;;;34.45;8.65;;;;;;;7.14;100.00;99438.59;5001331;28;20033;-81
2021/12/28 00:29:39;;;;;;;32.42;8.75;;;;;;;7.13;100.00;99441.16;4990845;28;20223;-81
2021/12/28 00:32:05;;;;;;;31.88;8.73;;;;;;;7.12;100.00;99439.41;4985076;28;20050;-82
2021/12/28 00:34:31;;;;;;;29.02;8.07;;;;;;;7.14;100.00;99435.13;4999687;28;20089;-81
2021/12/28 00:36:57;;;;;;;38.95;8.48;;;;;;;7.14;100.00;99438.59;4997124;28;20035;-81
2021/12/28 00:39:22;;;;;;;31.13;7.85;;;;;;;7.11;100.00;99432.47;4989858;28;20104;-82
2021/12/28 00:41:47;;;;;;;26.92;7.97;;;;;;;7.10;100.00;99434.22;4998917;28;20026;-81
2021/12/28 00:44:14;;;;;;;37.88;9.68;;;;;;;7.10;100.00;99425.56;4999835;28;20426;-82
2021/12/28 00:46:40;;;;;;;34.20;8.50;;;;;;;7.08;100.00;99428.16;4994179;28;20030;-81
2021/12/28 00:49:05;;;;;;;29.85;8.32;;;;;;;7.05;100.00;99422.91;5002497;28;20027;-82
2021/12/28 00:51:31;;;;;;;38.67;9.25;;;;;;;7.05;100.00;99422.91;4997480;28;20027;-81
2021/12/28 00:53:56;;;;;;;36.10;8.85;;;;;;;7.05;100.00;99419.44;4991444;28;20033;-82
2021/12/28 00:56:21;;;;;;;36.08;8.18;;;;;;;7.05;100.00;99422.03;4992263;28;20036;-81
2021/12/28 00:58:47;;;;;;;39.47;8.77;;;;;;;7.05;100.00;99415.13;4989982;28;20026;-81
2021/12/28 01:01:13;;;;;;;31.33;7.95;;;;;;;7.06;100.00;99406.50;4994202;28;20026;-81
2021/12/28 01:03:38;;;;;;;32.40;8.32;;;;;;;7.07;100.00;99416.03;4992271;28;20082;-81
2021/12/28 01:06:05;;;;;;;41.70;8.02;;;;;;;7.08;100.00;99410.03;5000908;28;20031;-81
2021/12/28 01:08:31;;;;;;;37.83;8.88;;;;;;;7.07;100.00;99415.19;5000888;28;20060;-81
2021/12/28 01:10:58;;;;;;;36.38;8.52;;;;;;;7.06;100.00;99408.25;4996370;28;20030;-82
2021/12/28 01:13:24;;;;;;;36.67;9.25;;;;;;;7.04;100.00;99404.75;4996746;28;20030;-81
2021/12/28 01:15:51;;;;;;;41.42;9.15;;;;;;;7.02;100.00;99399.53;4992564;28;20065;-82
2021/12/28 01:18:17;;;;;;;41.78;9.23;;;;;;;6.99;100.00;99403.81;5001148;28;20049;-81
2021/12/28 01:20:43;;;;;;;32.10;8.85;;;;;;;6.96;99.87;99402.06;5003927;28;20260;-81
2021/12/28 01:23:09;;;;;;;31.80;8.82;;;;;;;6.93;100.00;99394.25;5001124;28;20049;-81
2021/12/28 01:25:35;;;;;;;35.95;8.95;;;;;;;6.90;99.86;99397.66;4994260;28;20038;-81
2021/12/28 01:28:02;;;;;;;39.28;8.85;;;;;;;6.86;99.60;99397.59;4996797;28;20022;-82
2021/12/28 01:30:28;;;;;;;36.35;9.38;;;;;;;6.83;99.78;99390.63;5001392;28;20208;-81
2021/12/28 01:32:54;;;;;;;30.65;8.50;;;;;;;6.79;99.78;99392.31;5003034;28;20029;-82
2021/12/28 01:35:21;;;;;;;34.63;8.77;;;;;;;6.75;99.35;99393.13;5002324;28;20064;-82
2021/12/28 01:37:48;;;;;;;37.47;9.18;;;;;;;6.72;99.70;99398.25;4994076;28;20031;-81
2021/12/28 01:40:18;;;;;;;31.40;8.48;;;;;;;6.69;99.27;99398.22;4998943;28;20030;-81
2021/12/28 01:43:13;;;;;;;31.52;7.97;;;;;;;6.68;99.67;99393.88;4996320;28;20042;-81
2021/12/28 01:45:51;;;;;;;38.25;8.90;;;;;;;6.65;99.63;99391.25;5000149;28;20023;-82
2021/12/28 01:48:24;;;;;;;29.77;8.13;;;;;;;6.60;99.69;99391.16;5002677;28;20042;-81
2021/12/28 01:50:52;;;;;;;35.13;8.68;;;;;;;6.60;99.85;99398.03;4995249;28;20045;-81
2021/12/28 01:53:18;;;;;;;36.28;8.63;;;;;;;6.60;100.00;99390.28;5003044;28;20049;-81
2021/12/28 01:55:47;;;;;;;31.23;8.73;;;;;;;6.58;100.00;99392.84;4995058;28;20037;-81
2021/12/28 01:58:13;;;;;;;33.17;8.88;;;;;;;6.58;100.00;99392.84;4999255;28;20014;-81
2021/12/28 02:00:40;;;;;;;32.28;10.00;;;;;;;6.59;100.00;99393.75;4993046;28;20026;-81
2021/12/28 02:03:12;;;;;;;31.50;8.45;;;;;;;6.60;100.00;99390.28;5000213;28;20420;-81
2021/12/28 02:05:39;;;;;;;40.55;9.10;;;;;;;6.61;100.00;99386.84;5004145;28;20046;-81
2021/12/28 02:08:05;;;;;;;33.17;8.30;;;;;;;6.62;100.00;99388.59;4995637;28;20189;-80
2021/12/28 02:10:32;;;;;;;37.33;8.65;;;;;;;6.63;100.00;99390.31;4988545;28;20046;-81
2021/12/28 02:12:57;;;;;;;37.17;8.65;;;;;;;6.64;100.00;99388.63;4994662;28;20038;-81
2021/12/28 02:15:23;;;;;;;36.38;8.93;;;;;;;6.66;100.00;99382.59;4993100;28;20051;-81
2021/12/28 02:17:48;;;;;;;40.25;8.65;;;;;;;6.69;100.00;99384.38;4993172;28;20020;-82
2021/12/28 02:20:17;;;;;;;37.08;9.00;;;;;;;6.71;100.00;99385.28;4998627;28;20092;-81
2021/12/28 02:22:42;;;;;;;34.50;8.50;;;;;;;6.71;100.00;99383.56;4999565;28;20297;-81
2021/12/28 02:25:10;;;;;;;46.47;9.63;;;;;;;6.72;100.00;99385.31;5000807;28;20022;-81
2021/12/28 02:27:36;;;;;;;41.95;9.30;;;;;;;6.75;100.00;99380.19;4990797;28;20027;-81
2021/12/28 02:30:05;;;;;;;37.60;8.70;;;;;;;6.76;100.00;99376.75;4992395;28;20053;-81
2021/12/28 02:32:31;;;;;;;35.67;8.02;;;;;;;6.76;100.00;99375.84;4994687;28;20039;-81
2021/12/28 02:34:57;;;;;;;32.58;8.02;;;;;;;6.77;100.00;99373.28;4992920;28;20049;-81
2021/12/28 02:37:24;;;;;;;30.58;7.95;;;;;;;6.78;100.00;99377.63;5000432;28;20237;-81
2021/12/28 02:39:49;;;;;;;32.17;8.02;;;;;;;6.77;100.00;99370.69;4996743;28;20042;-81
2021/12/28 02:42:24;;;;;;;34.97;7.70;;;;;;;6.77;100.00;99372.44;4994942;28;20041;-81
2021/12/28 02:44:58;;;;;;;37.85;7.85;;;;;;;6.76;100.00;99365.50;4998301;28;20023;-81
2021/12/28 02:47:23;;;;;;;33.95;8.10;;;;;;;6.76;100.00;99368.09;4999390;28;20269;-81
2021/12/28 02:49:48;;;;;;;35.05;7.55;;;;;;;6.76;100.00;99366.41;5000659;28;20046;-81
2021/12/28 02:52:14;;;;;;;36.35;7.90;;;;;;;6.74;100.00;99362.91;4992593;28;20257;-82
2021/12/28 02:54:40;;;;;;;36.30;7.95;;;;;;;6.73;100.00;99358.56;4998318;28;20045;-81
2021/12/28 02:57:06;;;;;;;43.65;8.20;;;;;;;6.73;100.00;99357.69;4993013;28;20029;-81
2021/12/28 02:59:31;;;;;;;39.92;7.72;;;;;;;6.74;100.00;99349.94;4993962;28;20030;-80
2021/12/28 03:01:56;;;;;;;34.47;7.90;;;;;;;6.74;100.00;99349.94;4993380;28;20034;-81
2021/12/28 03:04:24;;;;;;;40.30;8.05;;;;;;;6.74;100.00;99349.94;4989807;28;20044;-81
2021/12/28 03:06:50;;;;;;;33.70;7.30;;;;;;;6.75;100.00;99346.53;4992195;28;20043;-81
2021/12/28 03:09:18;;;;;;;29.67;7.70;;;;;;;6.77;100.00;99346.53;4993498;28;20058;-81
2021/12/28 03:11:44;;;;;;;30.73;7.93;;;;;;;6.75;100.00;99341.34;4995587;28;20019;-82
2021/12/28 03:14:10;;;;;;;37.35;8.05;;;;;;;6.76;100.00;99339.63;4998899;28;20034;-81
2021/12/28 03:16:35;;;;;;;37.95;7.97;;;;;;;6.76;100.00;99339.63;4997587;28;20046;-81
2021/12/28 03:19:01;;;;;;;38.20;7.85;;;;;;;6.76;100.00;99337.94;4999339;28;20046;-81
2021/12/28 03:21:27;;;;;;;31.20;7.13;;;;;;;6.77;100.00;99342.22;4990232;28;20095;-81
2021/12/28 03:23:54;;;;;;;45.80;8.80;;;;;;;6.77;100.00;99336.19;4994228;28;20030;-81
2021/12/28 03:26:21;;;;;;;35.28;7.43;;;;;;;6.77;100.00;99334.47;5000074;28;20243;-81
2021/12/28 03:28:47;;;;;;;38.47;8.10;;;;;;;6.75;100.00;99331.00;4999258;28;20295;-81
2021/12/28 03:31:18;;;;;;;35.75;8.77;;;;;;;6.76;100.00;99327.56;5014815;28;20172;-81
2021/12/28 03:33:46;;;;;;;43.72;8.65;;;;;;;6.75;100.00;99323.22;4996946;28;20034;-82
2021/12/28 03:36:13;;;;;;;40.92;9.70;;;;;;;6.75;100.00;99318.06;5002073;28;20037;-81
2021/12/28 03:38:40;;;;;;;38.17;8.73;;;;;;;6.77;100.00;99326.69;4996647;28;20077;-81
2021/12/28 03:41:08;;;;;;;41.65;8.10;;;;;;;6.79;100.00;99325.03;4992798;28;20049;-81
2021/12/28 03:43:42;;;;;;;34.90;9.18;;;;;;;6.82;100.00;99321.56;4996728;28;20026;-81
2021/12/28 03:46:08;;;;;;;42.13;8.23;;;;;;;6.84;100.00;99317.31;4998821;28;20034;-82
2021/12/28 03:48:35;;;;;;;44.25;8.75;;;;;;;6.87;100.00;99307.00;4996704;28;20027;-81
2021/12/28 03:51:00;;;;;;;42.65;7.93;;;;;;;6.89;100.00;99302.69;4992055;28;20018;-81
2021/12/28 03:53:27;;;;;;;45.42;8.02;;;;;;;6.93;100.00;99298.44;4996920;28;20134;-81
2021/12/28 03:55:53;;;;;;;29.80;7.32;;;;;;;6.93;100.00;99293.25;4990937;28;20026;-81
2021/12/28 03:58:18;;;;;;;34.60;6.90;;;;;;;6.95;100.00;99283.78;4995050;28;20205;-81
2021/12/28 04:00:47;;;;;;;28.80;7.00;;;;;;;6.96;100.00;99290.72;4999432;28;20041;-81
2021/12/28 04:03:13;;;;;;;31.00;7.10;;;;;;;6.95;100.00;99288.97;4995602;28;20031;-80
2021/12/28 04:05:39;;;;;;;26.90;6.70;;;;;;;6.94;100.00;99290.69;4990194;28;20191;-81
2021/12/28 04:08:05;;;;;;;36.50;6.82;;;;;;;6.97;100.00;99290.72;4992826;28;20076;-81
2021/12/28 04:10:38;;;;;;;33.05;7.13;;;;;;;6.98;100.00;99289.03;4997299;28;20194;-81
2021/12/28 04:13:04;;;;;;;23.52;6.43;;;;;;;7.00;100.00;99286.47;4997965;28;20034;-82
2021/12/28 04:15:30;;;;;;;29.33;6.63;;;;;;;7.01;100.00;99283.00;4996410;28;20050;-81
2021/12/28 04:17:55;;;;;;;41.42;7.00;;;;;;;7.02;100.00;99280.41;4997932;28;20029;-82
2021/12/28 04:20:22;;;;;;;29.13;6.50;;;;;;;7.05;100.00;99285.63;4989703;28;20031;-81
2021/12/28 04:22:48;;;;;;;44.05;7.30;;;;;;;7.09;100.00;99287.41;4993126;28;20104;-80
2021/12/28 04:25:15;;;;;;;30.83;5.82;;;;;;;7.12;100.00;99287.44;4990724;28;20057;-80
2021/12/28 04:27:41;;;;;;;34.42;6.57;;;;;;;7.16;100.00;99279.75;4998633;28;20030;-81
2021/12/28 04:30:09;;;;;;;28.63;6.25;;;;;;;7.18;100.00;99283.22;4998956;28;20045;-81
2021/12/28 04:32:34;;;;;;;29.23;5.97;;;;;;;7.20;100.00;99274.63;5000053;28;20257;-81
2021/12/28 04:35:00;;;;;;;34.83;6.10;;;;;;;7.24;100.00;99278.97;4994686;28;20046;-79
2021/12/28 04:37:25;;;;;;;34.65;6.05;;;;;;;7.29;100.00;99281.63;4993689;28;20026;-81
2021/12/28 04:39:51;;;;;;;29.40;6.07;;;;;;;7.30;100.00;99284.22;4996532;28;20026;-81
2021/12/28 04:42:16;;;;;;;24.83;4.95;;;;;;;7.32;100.00;99289.44;4992453;28;20050;-80
2021/12/28 04:44:42;;;;;;;31.55;4.80;;;;;;;7.35;100.00;99281.69;4996848;28;20030;-81
2021/12/28 04:47:07;;;;;;;25.45;4.40;;;;;;;7.40;100.00;99292.09;5003228;28;20056;-81
2021/12/28 04:49:32;;;;;;;24.02;4.50;;;;;;;7.45;100.00;99291.28;4999562;28;20094;-81
2021/12/28 04:51:59;;;;;;;27.42;4.72;;;;;;;7.46;100.00;99293.03;4999739;28;20273;-82
2021/12/28 04:54:25;;;;;;;26.60;4.68;;;;;;;7.50;100.00;99299.13;4992612;28;20030;-81
2021/12/28 04:56:50;;;;;;;22.88;4.53;;;;;;;7.52;100.00;99296.53;5001662;28;20041;-81
2021/12/28 04:59:17;;;;;;;25.50;4.47;;;;;;;7.54;100.00;99306.06;4997589;28;20027;-81
2021/12/28 05:01:43;;;;;;;26.40;4.30;;;;;;;7.55;100.00;99297.47;4994556;28;20049;-81
2021/12/28 05:04:09;;;;;;;26.70;4.65;;;;;;;7.57;100.00;99287.09;4993896;28;20086;-81
2021/12/28 05:06:35;;;;;;;24.83;3.92;;;;;;;7.56;100.00;99285.34;4992373;28;20094;-81
2021/12/28 05:09:04;;;;;;;29.75;4.28;;;;;;;7.56;100.00;99288.84;4998836;28;20018;-81
2021/12/28 05:11:31;;;;;;;22.20;4.50;;;;;;;7.60;100.00;99279.34;5000987;28;20026;-81
2021/12/28 05:13:57;;;;;;;26.35;4.20;;;;;;;7.61;100.00;99278.50;5003254;28;20030;-81
2021/12/28 05:16:22;;;;;;;24.02;4.35;;;;;;;7.63;100.00;99279.38;4994206;28;20035;-81
2021/12/28 05:18:47;;;;;;;26.15;4.40;;;;;;;7.65;100.00;99272.50;4998894;28;20034;-82
2021/12/28 05:21:13;;;;;;;23.77;3.78;;;;;;;7.69;100.00;99274.28;4997269;28;20081;-82
2021/12/28 05:23:38;;;;;;;21.95;3.65;;;;;;;7.70;100.00;99275.13;4989722;28;20266;-82
2021/12/28 05:26:04;;;;;;;18.60;3.90;;;;;;;7.71;100.00;99272.56;5003135;28;20269;-81
2021/12/28 05:28:29;;;;;;;18.88;3.67;;;;;;;7.72;100.00;99270.81;5000007;28;20198;-81
2021/12/28 05:30:54;;;;;;;19.95;3.90;;;;;;;7.72;100.00;99269.13;4988112;28;20094;-82
2021/12/28 05:33:20;;;;;;;14.45;3.58;;;;;;;7.71;100.00;99261.34;4998588;28;20022;-81
2021/12/28 05:35:45;;;;;;;22.60;4.03;;;;;;;7.73;100.00;99262.19;4990396;28;20181;-81
2021/12/28 05:38:12;;;;;;;22.60;4.38;;;;;;;7.72;100.00;99257.84;4996987;28;20284;-82
2021/12/28 05:40:38;;;;;;;15.05;3.13;;;;;;;7.76;100.00;99267.41;4998725;28;20253;-82
2021/12/28 05:43:04;;;;;;;18.95;3.83;;;;;;;7.75;100.00;99263.97;4999024;28;20277;-82
2021/12/28 05:45:29;;;;;;;18.02;3.95;;;;;;;7.76;100.00;99257.94;5005492;28;20054;-82
2021/12/28 05:47:54;;;;;;;19.42;3.50;;;;;;;7.75;100.00;99248.41;5001793;28;20268;-81
2021/12/28 05:50:19;;;;;;;19.80;3.50;;;;;;;7.76;100.00;99247.56;5004730;28;20288;-81
2021/12/28 05:52:45;;;;;;;19.50;3.70;;;;;;;7.77;100.00;99246.69;5004121;28;20038;-81
2021/12/28 05:55:10;;;;;;;22.17;3.50;;;;;;;7.78;100.00;99240.66;4995070;28;20037;-81
2021/12/28 05:57:36;;;;;;;19.52;3.67;;;;;;;7.79;100.00;99239.81;5000164;28;20038;-82
2021/12/28 06:00:05;;;;;;;16.38;3.10;;;;;;;7.80;100.00;99238.06;4990259;28;20049;-82
2021/12/28 06:02:30;;;;;;;13.05;2.75;;;;;;;7.82;100.00;99237.22;4999461;28;20014;-82
2021/12/28 06:04:56;;;;;;;15.32;2.97;;;;;;;7.86;100.00;99235.53;4994211;28;20041;-82
2021/12/28 06:07:26;;;;;;;14.30;2.63;;;;;;;7.92;100.00;99235.59;4994597;28;20117;-82
2021/12/28 06:09:52;;;;;;;18.77;3.03;;;;;;;7.97;100.00;99246.00;4988354;28;20211;-82
2021/12/28 06:12:17;;;;;;;17.05;2.70;;;;;;;8.03;100.00;99232.22;4994983;28;20205;-82
2021/12/28 06:14:42;;;;;;;15.48;2.72;;;;;;;8.10;100.00;99240.03;5000281;28;20034;-82
2021/12/28 06:17:08;;;;;;;14.07;2.70;;;;;;;8.09;100.00;99227.91;4998096;28;20026;-82
2021/12/28 06:19:33;;;;;;;18.52;4.00;;;;;;;8.09;100.00;99225.31;4987094;28;20272;-82
2021/12/28 06:21:58;;;;;;;17.52;4.40;;;;;;;8.10;100.00;99228.81;4995357;28;20169;-82
2021/12/28 06:24:24;;;;;;;11.90;2.55;;;;;;;8.09;100.00;99229.66;4991788;28;20027;-82
2021/12/28 06:26:49;;;;;;;12.68;2.45;;;;;;;8.09;100.00;99224.47;4997563;28;20046;-82
2021/12/28 06:29:15;;;;;;;13.52;2.50;;;;;;;8.08;100.00;99221.03;4995240;28;20053;-82
2021/12/28 06:31:40;;;;;;;14.25;2.60;;;;;;;8.10;100.00;99215.84;4997299;28;20073;-82
2021/12/28 06:34:07;;;;;;;16.92;2.67;;;;;;;8.10;100.00;99203.72;4999702;28;20045;-82
2021/12/28 06:36:32;;;;;;;12.82;2.53;;;;;;;8.10;100.00;99206.31;4995808;28;20038;-82
2021/12/28 06:38:58;;;;;;;13.52;2.72;;;;;;;8.11;100.00;99195.09;5000217;28;20084;-82
2021/12/28 06:41:24;;;;;;;10.32;2.25;;;;;;;8.13;100.00;99197.69;5003741;28;20038;-82
2021/12/28 06:43:49;;;;;;;12.10;2.38;;;;;;;8.13;100.00;99200.28;5003929;28;20030;-81
2021/12/28 06:46:15;;;;;;;13.57;2.38;;;;;;;8.13;100.00;99198.56;5003392;28;20328;-82
2021/12/28 06:48:41;;;;;;;13.13;2.67;;;;;;;8.13;100.00;99198.56;4998975;28;20230;-82
2021/12/28 06:51:07;;;;;;;14.52;2.92;;;;;;;8.11;99.84;99208.06;4993698;28;20292;-82
2021/12/28 06:53:33;;;;;;;10.75;2.15;;;;;;;8.11;99.92;99197.69;4992986;28;20022;-81
2021/12/28 06:55:58;;;;;;;13.75;2.55;;;;;;;8.13;99.96;99203.75;5000018;28;20094;-81
2021/12/28 06:58:24;;;;;;;10.98;2.47;;;;;;;8.13;99.99;99198.56;4991578;28;20085;-82
2021/12/28 07:00:49;;;;;;;14.25;2.28;;;;;;;8.16;99.97;99195.97;4997162;28;20131;-81
2021/12/28 07:03:15;;;;;;;11.38;2.83;;;;;;;8.16;99.62;99195.97;5000809;28;20042;-81
2021/12/28 07:05:40;;;;;;;11.20;1.98;;;;;;;8.14;99.82;99195.13;4996364;28;20058;-82
2021/12/28 07:08:06;;;;;;;15.02;2.67;;;;;;;8.15;99.68;99194.25;4988745;28;20023;-81
2021/12/28 07:10:32;;;;;;;11.98;2.38;;;;;;;8.17;99.61;99192.53;4994972;28;20014;-81
2021/12/28 07:12:57;;;;;;;11.55;2.53;;;;;;;8.16;99.56;99201.16;5002856;28;20085;-81
2021/12/28 07:15:23;;;;;;;11.20;2.22;;;;;;;8.17;99.50;99197.72;4989601;28;20297;-81
2021/12/28 07:17:49;;;;;;;10.98;2.80;;;;;;;8.18;99.38;99195.97;4998348;28;20094;-81
2021/12/28 07:20:15;;;;;;;13.38;2.42;;;;;;;8.18;99.58;99199.47;4992376;28;20030;-82
2021/12/28 07:22:41;;;;;;;10.07;2.30;;;;;;;8.17;99.77;99200.31;4993086;28;20037;-81
2021/12/28 07:25:09;;;;;;;11.65;2.47;;;;;;;8.17;99.64;99202.91;4999089;28;20181;-82
2021/12/28 07:27:35;;;;;;;12.02;2.47;;;;;;;8.19;99.74;99205.50;4999005;28;20026;-81
2021/12/28 07:30:01;;;;;;;9.88;2.00;;;;;;;8.19;99.58;99197.72;4999473;28;20200;-82
2021/12/28 07:32:26;;;;;;;11.55;2.28;;;;;;;8.21;99.92;99195.16;4993536;28;20186;-81
2021/12/28 07:34:51;;;;;;;10.05;2.40;;;;;;;8.25;99.43;99189.13;4991613;28;20046;-82
2021/12/28 07:37:17;;;;;;;14.18;2.47;;;;;;;8.25;99.55;99183.94;4999784;28;20034;-82
2021/12/28 07:39:42;;;;;;;9.27;1.98;;;;;;;8.26;99.74;99190.88;4993328;28;20045;-81
2021/12/28 07:42:08;;;;;;;7.82;1.80;;;;;;;8.27;99.93;99205.56;4987612;28;20180;-81
2021/12/28 07:44:33;;;;;;;9.23;2.53;;;;;;;8.27;100.00;99196.06;4990094;28;20097;-81
2021/12/28 07:46:59;;;;;;;10.32;2.40;;;;;;;8.27;100.00;99195.19;4998880;28;20034;-80
2021/12/28 07:49:24;;;;;;;11.38;2.53;;;;;;;8.26;100.00;99198.66;5001480;28;20348;-81
2021/12/28 07:51:50;;;;;;;10.60;2.20;;;;;;;8.27;100.00;99189.97;4992399;28;20280;-82
2021/12/28 07:54:15;;;;;;;9.57;2.45;;;;;;;8.25;100.00;99192.56;4989854;28;20162;-82
2021/12/28 07:56:41;;;;;;;10.43;3.35;;;;;;;8.27;100.00;99195.19;4996368;28;20301;-81
2021/12/28 07:59:07;;;;;;;9.57;2.40;;;;;;;8.26;100.00;99190.88;4997514;28;20030;-81
2021/12/28 08:01:34;;;;;;;11.05;2.67;;;;;;;8.25;100.00;99189.97;4995816;28;20089;-81
2021/12/28 08:03:59;;;;;;;12.75;2.72;;;;;;;8.26;100.00;99178.75;4995068;28;20090;-82
2021/12/28 08:06:24;;;;;;;14.75;3.10;;;;;;;8.26;100.00;99176.16;4996308;28;20086;-81
2021/12/28 08:08:50;;;;;;;10.25;3.20;;;;;;;8.27;100.00;99174.41;4987177;28;20241;-82
2021/12/28 08:11:15;;;;;;;9.07;3.22;;;;;;;8.28;100.00;99181.34;4989699;28;20061;-82
2021/12/28 08:13:40;;;;;;;14.15;3.75;;;;;;;8.28;100.00;99181.34;4998212;28;20335;-81
2021/12/28 08:16:06;;;;;;;11.23;3.22;;;;;;;8.29;100.00;99180.50;5000294;28;20273;-82
2021/12/28 08:18:31;;;;;;;11.63;3.88;;;;;;;8.31;100.00;99186.56;4999785;28;20025;-81
2021/12/28 08:20:56;;;;;;;12.57;3.75;;;;;;;8.32;100.00;99186.56;5004383;28;21015;-81
2021/12/28 08:23:22;;;;;;;10.85;3.67;;;;;;;8.34;100.00;99169.28;5005182;28;20022;-81
2021/12/28 08:25:47;;;;;;;10.88;3.40;;;;;;;8.35;100.00;99183.13;5004153;28;20022;-81
2021/12/28 08:28:12;;;;;;;12.05;4.05;;;;;;;8.36;100.00;99180.53;5002881;28;20350;-80
2021/12/28 08:30:38;;;;;;;11.77;4.03;;;;;;;8.37;100.00;99171.00;5005641;28;20217;-81
2021/12/28 08:33:08;;;;;;;10.63;3.92;;;;;;;8.38;100.00;99167.56;5004558;28;20029;-81
2021/12/28 08:35:36;;;;;;;11.38;3.72;;;;;;;8.39;100.00;99171.91;5004774;28;20431;-82
2021/12/28 08:38:02;;;;;;;10.18;4.18;;;;;;;8.40;100.00;99171.06;5003300;28;20045;-81
2021/12/28 08:40:27;;;;;;;13.73;4.47;;;;;;;8.39;100.00;99164.13;5001910;28;20034;-81
2021/12/28 08:42:53;;;;;;;9.95;4.25;;;;;;;8.43;100.00;99163.28;4993028;28;20023;-82
2021/12/28 08:45:19;;;;;;;15.05;4.68;;;;;;;8.43;100.00;99159.78;5003550;28;20057;-82
2021/12/28 08:47:46;;;;;;;13.27;4.88;;;;;;;8.44;100.00;99162.44;5018820;28;20030;-81
2021/12/28 08:50:12;;;;;;;13.18;4.95;;;;;;;8.45;100.00;99164.19;5003259;28;20172;-82
2021/12/28 08:52:39;;;;;;;14.55;5.07;;;;;;;8.45;100.00;99158.97;4997592;28;20038;-82
2021/12/28 08:55:05;;;;;;;13.60;4.85;;;;;;;8.45;100.00;99153.78;5006120;28;20030;-81
2021/12/28 08:57:31;;;;;;;15.50;5.50;;;;;;;8.45;100.00;99156.38;5000462;28;20042;-82
2021/12/28 08:59:56;;;;;;;13.05;5.70;;;;;;;8.49;100.00;99157.28;5005002;28;20076;-81
2021/12/28 09:02:21;;;;;;;12.75;5.72;;;;;;;8.49;100.00;99162.47;5000596;28;20177;-82
2021/12/28 09:04:46;;;;;;;12.68;5.22;;;;;;;8.49;100.00;99158.16;4998220;28;20284;-81
2021/12/28 09:07:13;;;;;;;14.45;5.43;;;;;;;8.51;100.00;99151.22;5001230;28;20184;-82
2021/12/28 09:09:39;;;;;;;12.63;4.97;;;;;;;8.52;100.00;99149.50;5004054;28;20180;-81
2021/12/28 09:12:05;;;;;;;14.45;6.03;;;;;;;8.53;100.00;99151.25;5001189;28;20036;-82
2021/12/28 09:14:32;;;;;;;13.60;5.90;;;;;;;8.54;100.00;99137.38;5001445;28;20217;-82
2021/12/28 09:16:58;;;;;;;14.13;6.20;;;;;;;8.56;100.00;99146.06;5001621;28;20080;-82
2021/12/28 09:19:24;;;;;;;17.98;6.65;;;;;;;8.56;100.00;99145.19;4992718;28;20034;-81
2021/12/28 09:21:49;;;;;;;15.25;6.80;;;;;;;8.58;100.00;99143.47;5003543;28;20158;-81
2021/12/28 09:24:14;;;;;;;16.55;6.60;;;;;;;8.62;100.00;99150.44;5001994;28;20092;-82
2021/12/28 09:26:40;;;;;;;17.73;7.25;;;;;;;8.65;100.00;99145.25;5002315;28;20089;-82
2021/12/28 09:29:05;;;;;;;18.40;7.70;;;;;;;8.66;100.00;99139.16;4999836;28;20415;-82
2021/12/28 09:31:30;;;;;;;18.63;7.35;;;;;;;8.68;100.00;99135.72;5003575;28;20133;-82
2021/12/28 09:33:56;;;;;;;18.08;8.10;;;;;;;8.70;100.00;99133.13;4998506;28;20365;-81
2021/12/28 09:36:21;;;;;;;18.35;7.65;;;;;;;8.72;100.00;99128.81;5003722;28;20053;-66
2021/12/28 09:38:47;;;;;;;18.80;8.05;;;;;;;8.77;100.00;99129.69;5004052;28;20036;-65
2021/12/28 09:41:14;;;;;;;17.88;8.02;;;;;;;8.76;100.00;99127.09;5002822;28;20300;-65
2021/12/28 09:43:40;;;;;;;16.17;7.90;;;;;;;8.76;100.00;99122.78;5003772;28;20107;-65
2021/12/28 09:46:05;;;;;;;19.60;8.27;;;;;;;8.79;100.00;99120.19;5004660;28;20026;-65
2021/12/28 09:48:32;;;;;;;18.98;8.05;;;;;;;8.80;100.00;99124.50;5004843;28;20145;-65
2021/12/28 09:50:58;;;;;;;18.42;8.05;;;;;;;8.81;100.00;99115.84;4997429;28;20026;-65
2021/12/28 09:53:23;;;;;;;17.13;8.02;;;;;;;8.82;100.00;99114.09;5000714;28;20316;-65
2021/12/28 09:55:49;;;;;;;18.58;8.38;;;;;;;8.83;100.00;99121.06;4998434;28;20045;-65
2021/12/28 09:58:14;;;;;;;20.48;8.82;;;;;;;8.84;100.00;99115.84;5003485;28;20265;-65
2021/12/28 10:00:39;;;;;;;19.38;8.30;;;;;;;8.85;100.00;99107.22;4998690;28;20034;-65
2021/12/28 10:03:05;;;;;;;18.70;8.77;;;;;;;8.88;100.00;99094.22;5005154;28;20109;-65
2021/12/28 10:05:33;;;;;;;16.48;8.02;;;;;;;8.93;100.00;99106.38;5004857;28;20022;-65
2021/12/28 10:07:59;;;;;;;17.90;7.60;;;;;;;8.96;100.00;99101.16;5004495;28;20038;-65
2021/12/28 10:10:33;;;;;;;17.38;7.80;;;;;;;8.99;100.00;99103.78;5003980;28;20038;-65
2021/12/28 10:13:02;;;;;;;17.35;7.80;;;;;;;9.01;100.00;99084.72;5003732;28;20090;-65
2021/12/28 10:15:31;;;;;;;15.07;7.33;;;;;;;9.03;100.00;99085.59;5003928;28;20042;-65
2021/12/28 10:18:00;;;;;;;16.17;8.25;;;;;;;9.05;100.00;99083.00;5004591;28;20069;-65
2021/12/28 10:20:26;;;;;;;17.83;8.13;;;;;;;9.03;100.00;99085.59;5003842;28;20117;-65
2021/12/28 10:22:58;;;;;;;14.40;7.63;;;;;;;9.06;100.00;99076.94;5002935;28;20030;-65
2021/12/28 10:25:32;;;;;;;15.52;7.57;;;;;;;9.07;100.00;99067.41;5003099;28;20030;-65
2021/12/28 10:28:01;;;;;;;15.57;8.00;;;;;;;9.07;100.00;99068.28;4997874;28;20042;-65
2021/12/28 10:30:48;;;;;;;15.93;7.97;;;;;;;9.10;100.00;99057.88;5000255;28;20034;-65
2021/12/28 10:33:17;;;;;;;15.60;7.32;;;;;;;9.14;100.00;99057.03;5002248;28;20178;-65
2021/12/28 10:35:47;;;;;;;13.80;7.38;;;;;;;9.16;100.00;99044.91;4997392;28;20026;-65
2021/12/28 10:38:21;;;;;;;13.13;6.78;;;;;;;9.21;100.00;99045.78;5003254;28;20034;-65
2021/12/28 10:40:54;;;;;;;11.57;6.25;;;;;;;9.26;100.00;99035.38;5002574;28;20161;-65
2021/12/28 10:43:30;;;;;;;13.68;6.50;;;;;;;9.28;100.00;99046.63;4993375;28;20038;-65
2021/12/28 10:46:02;;;;;;;10.13;5.68;;;;;;;9.30;100.00;99036.22;5003730;28;20025;-65
2021/12/28 10:48:40;;;;;;;10.20;5.07;;;;;;;9.33;99.99;99037.09;5003408;28;20030;-65
2021/12/28 10:51:13;;;;;;;9.23;4.27;;;;;;;9.35;99.63;99037.09;5003858;28;20086;-65
2021/12/28 10:56:26;;;;;;;10.68;4.25;;;;;;;9.35;99.52;99034.50;5000732;28;20046;-65
2021/12/28 10:58:51;;;;;;;9.52;4.15;;;;;;;9.36;99.69;99026.69;5003348;28;20268;-65
2021/12/28 11:01:23;;;;;;;9.80;4.65;;;;;;;9.35;99.89;99024.97;5002901;28;20057;-65
2021/12/28 11:03:53;;;;;;;11.38;4.38;;;;;;;9.36;100.00;99020.66;4996679;28;20030;-65
2021/12/28 11:06:25;;;;;;;9.82;4.75;;;;;;;9.33;100.00;99024.09;5002628;28;20030;-65
2021/12/28 11:08:53;;;;;;;8.93;4.55;;;;;;;9.33;100.00;99020.66;5002712;28;20088;-65
2021/12/28 11:11:21;;;;;;;9.07;4.85;;;;;;;9.31;100.00;99012.84;5003360;28;20022;-65
2021/12/28 11:13:48;;;;;;;9.55;5.03;;;;;;;9.31;100.00;99007.66;5002956;28;20037;-65
2021/12/28 11:16:19;;;;;;;10.82;4.95;;;;;;;9.31;100.00;98998.97;5002418;28;20054;-65
2021/12/28 11:18:45;;;;;;;9.77;5.00;;;;;;;9.31;100.00;99001.56;5003624;28;20077;-65
2021/12/28 11:21:27;;;;;;;10.10;5.40;;;;;;;9.28;100.00;98989.44;5003026;28;20038;-65
2021/12/28 11:24:01;;;;;;;9.32;5.28;;;;;;;9.30;100.00;98995.53;5001200;28;20022;-65
2021/12/28 11:26:32;;;;;;;11.98;5.40;;;;;;;9.30;100.00;98984.25;4993703;28;20100;-65
2021/12/28 11:29:08;;;;;;;8.65;4.63;;;;;;;9.30;100.00;98984.25;4994782;28;20181;-65